createdAt,value
2019-03-24T00:00:08.883Z,71.82
2019-03-24T00:02:43.429Z,72.82
2019-03-24T00:05:16.132Z,73.23
2019-03-24T00:07:48.830Z,74.82
2019-03-24T00:10:21.546Z,74.66
2019-03-24T00:12:54.204Z,75.42
2019-03-24T00:15:27.459Z,74.26
2019-03-24T00:18:00.073Z,74.58
2019-03-24T00:20:32.709Z,73.98
2019-03-24T00:23:05.481Z,75.32
2019-03-24T00:25:38.117Z,75.33
2019-03-24T00:28:11.735Z,75.14
2019-03-24T00:30:44.447Z,73.54
2019-03-24T00:33:17.001Z,72.75
2019-03-24T00:35:49.713Z,72.92
2019-03-24T00:38:22.330Z,72.80
2019-03-24T00:40:55.042Z,73.14
2019-03-24T00:43:27.734Z,73.37
2019-03-24T00:46:00.401Z,72.79
2019-03-24T00:48:33.018Z,73.24
2019-03-24T00:51:05.726Z,74.08
2019-03-24T00:53:38.653Z,74.76
2019-03-24T00:56:12.452Z,74.74
2019-03-24T00:58:45.154Z,74.34
2019-03-24T01:01:17.863Z,73.65
2019-03-24T01:03:50.565Z,74.49
2019-03-24T01:06:23.207Z,74.35
2019-03-24T01:08:55.892Z,74.83
2019-03-24T01:11:28.941Z,75.44
2019-03-24T01:14:01.560Z,75.19
2019-03-24T01:16:34.231Z,74.95
2019-03-24T01:19:07.081Z,75.49
2019-03-24T01:21:39.715Z,75.68
2019-03-24T01:24:12.293Z,77.12
2019-03-24T01:26:45.210Z,77.08
2019-03-24T01:29:17.769Z,76.87
2019-03-24T01:31:50.447Z,78.26
2019-03-24T01:34:23.357Z,78.36
2019-03-24T01:36:55.925Z,78.78
2019-03-24T01:39:28.557Z,78.08
2019-03-24T01:42:01.282Z,76.41
2019-03-24T01:44:34.193Z,76.93
2019-03-24T01:47:06.904Z,77.44
2019-03-24T01:49:39.521Z,78.24
2019-03-24T01:52:12.216Z,76.95
2019-03-24T01:54:45.088Z,77.81
2019-03-24T01:57:17.727Z,76.77
2019-03-24T01:59:50.662Z,75.85
2019-03-24T02:02:23.386Z,76.28
2019-03-24T02:04:56.011Z,74.52
2019-03-24T02:07:28.635Z,74.08
2019-03-24T02:10:01.264Z,74.51
2019-03-24T02:12:33.912Z,74.35
2019-03-24T02:15:07.098Z,74.85
2019-03-24T02:17:39.742Z,74.94
2019-03-24T02:20:13.423Z,75.36
2019-03-24T02:22:46.096Z,75.16
2019-03-24T02:25:18.651Z,76.08
2019-03-24T02:27:51.204Z,76.59
2019-03-24T02:30:25.653Z,76.53
2019-03-24T02:32:58.708Z,76.85
2019-03-24T02:35:32.405Z,76.17
2019-03-24T02:38:06.010Z,75.95
2019-03-24T02:40:38.647Z,77.02
2019-03-24T02:43:12.167Z,77.64
2019-03-24T02:45:44.858Z,78.64
2019-03-24T02:48:18.374Z,79.13
2019-03-24T02:50:52.292Z,79.87
2019-03-24T02:53:24.860Z,79.10
2019-03-24T02:55:57.487Z,78.35
2019-03-24T02:58:30.062Z,78.54
2019-03-24T03:01:03.736Z,78.55
2019-03-24T03:03:36.324Z,78.14
2019-03-24T03:06:08.879Z,77.68
2019-03-24T03:08:41.949Z,77.89
2019-03-24T03:11:14.643Z,77.76
2019-03-24T03:13:47.264Z,77.55
2019-03-24T03:16:20.070Z,78.03
2019-03-24T03:18:52.773Z,78.39
2019-03-24T03:21:25.610Z,78.18
2019-03-24T03:23:59.321Z,78.27
2019-03-24T03:26:31.855Z,78.03
2019-03-24T03:29:04.537Z,77.53
2019-03-24T03:31:37.150Z,76.67
2019-03-24T03:34:09.860Z,76.53
2019-03-24T03:36:42.810Z,76.72
2019-03-24T03:39:15.345Z,76.72
2019-03-24T03:41:48.034Z,76.36
2019-03-24T03:44:20.729Z,76.71
2019-03-24T03:46:53.494Z,75.70
2019-03-24T03:49:26.213Z,75.41
2019-03-24T03:51:58.760Z,76.23
2019-03-24T03:54:31.385Z,76.44
2019-03-24T03:57:03.929Z,76.29
2019-03-24T03:59:36.491Z,76.24
2019-03-24T04:02:09.184Z,76.60
2019-03-24T04:04:41.728Z,76.50
2019-03-24T04:07:14.353Z,77.71
2019-03-24T04:09:46.905Z,77.67
2019-03-24T04:12:19.872Z,78.02
2019-03-24T04:14:53.570Z,78.16
2019-03-24T04:17:26.117Z,78.51
2019-03-24T04:19:58.753Z,79.38
2019-03-24T04:22:31.428Z,80.03
2019-03-24T04:25:04.065Z,79.53
2019-03-24T04:27:37.671Z,79.21
2019-03-24T04:30:11.149Z,79.06
2019-03-24T04:32:44.074Z,78.93
2019-03-24T04:35:16.764Z,78.17
2019-03-24T04:37:49.311Z,77.83
2019-03-24T04:40:22.236Z,77.84
2019-03-24T04:42:54.771Z,77.86
2019-03-24T04:45:27.320Z,77.31
2019-03-24T04:47:59.991Z,77.14
2019-03-24T04:50:32.539Z,77.95
2019-03-24T04:53:05.148Z,78.62
2019-03-24T04:55:37.710Z,78.53
2019-03-24T04:58:10.326Z,77.75
2019-03-24T05:00:43.116Z,77.99
2019-03-24T05:03:15.812Z,77.93
2019-03-24T05:05:48.825Z,78.19
2019-03-24T05:08:21.501Z,79.25
2019-03-24T05:10:54.058Z,79.09
2019-03-24T05:13:26.961Z,79.01
2019-03-24T05:16:00.887Z,79.64
2019-03-24T05:18:33.614Z,79.64
2019-03-24T05:21:06.358Z,79.54
2019-03-24T05:23:39.223Z,79.61
2019-03-24T05:26:12.506Z,79.71
2019-03-24T05:28:45.046Z,80.95
2019-03-24T05:31:17.599Z,79.87
2019-03-24T05:33:50.133Z,80.46
2019-03-24T05:36:22.993Z,81.41
2019-03-24T05:38:55.604Z,81.11
2019-03-24T05:41:28.157Z,80.62
2019-03-24T05:44:00.704Z,80.83
2019-03-24T05:46:33.268Z,80.81
2019-03-24T05:49:05.802Z,81.19
2019-03-24T05:51:38.787Z,80.87
2019-03-24T05:54:11.992Z,81.41
2019-03-24T05:56:45.022Z,81.43
2019-03-24T05:59:18.162Z,81.50
2019-03-24T06:01:50.716Z,81.66
2019-03-24T06:04:23.251Z,81.51
2019-03-24T06:06:55.816Z,81.31
2019-03-24T06:09:28.352Z,81.32
2019-03-24T06:12:00.986Z,81.35
2019-03-24T06:14:33.601Z,81.35
2019-03-24T06:17:06.328Z,81.77
2019-03-24T06:19:38.901Z,81.23
2019-03-24T06:22:12.292Z,81.21
2019-03-24T06:24:44.912Z,80.81
2019-03-24T06:27:17.600Z,81.23
2019-03-24T06:29:50.137Z,81.81
2019-03-24T06:32:23.042Z,82.04
2019-03-24T06:34:55.694Z,82.33
2019-03-24T06:37:28.699Z,82.40
2019-03-24T06:40:01.302Z,82.55
2019-03-24T06:42:33.855Z,82.51
2019-03-24T06:45:07.108Z,82.24
2019-03-24T06:47:40.813Z,81.29
2019-03-24T06:50:15.179Z,82.27
2019-03-24T06:52:47.869Z,82.14
2019-03-24T06:55:20.694Z,82.82
2019-03-24T06:57:53.303Z,81.84
2019-03-24T07:00:26.076Z,82.79
2019-03-24T07:02:58.772Z,82.51
2019-03-24T07:05:31.483Z,82.14
2019-03-24T07:08:04.084Z,82.78
2019-03-24T07:10:36.691Z,82.04
2019-03-24T07:13:09.204Z,82.23
2019-03-24T07:15:41.773Z,82.03
2019-03-24T07:18:14.494Z,82.03
2019-03-24T07:20:47.095Z,82.20
2019-03-24T07:23:19.719Z,81.02
2019-03-24T07:25:52.356Z,81.14
2019-03-24T07:28:25.091Z,81.79
2019-03-24T07:30:58.904Z,81.32
2019-03-24T07:33:31.454Z,80.82
2019-03-24T07:36:04.160Z,84.04
2019-03-24T07:38:36.827Z,84.65
2019-03-24T07:41:09.433Z,84.00
2019-03-24T07:43:42.034Z,82.72
2019-03-24T07:46:14.598Z,81.71
2019-03-24T07:48:47.205Z,81.69
2019-03-24T07:51:19.760Z,80.38
2019-03-24T07:53:52.408Z,82.06
2019-03-24T07:56:24.918Z,81.04
2019-03-24T07:58:57.453Z,78.04
2019-03-24T08:01:30.054Z,85.45
2019-03-24T08:04:02.680Z,88.45
2019-03-24T08:06:35.222Z,88.17
2019-03-24T08:09:08.670Z,87.66
2019-03-24T08:11:41.212Z,88.51
2019-03-24T08:14:13.737Z,87.90
2019-03-24T08:16:46.432Z,88.17
2019-03-24T08:19:18.978Z,87.65
2019-03-24T08:21:51.514Z,87.24
2019-03-24T08:24:24.377Z,87.05
2019-03-24T08:26:57.286Z,86.10
2019-03-24T08:29:29.878Z,86.61
2019-03-24T08:32:02.737Z,84.89
2019-03-24T08:34:35.279Z,86.49
2019-03-24T08:37:08.022Z,85.87
2019-03-24T08:39:40.544Z,83.82
2019-03-24T08:42:13.147Z,84.14
2019-03-24T08:44:46.161Z,84.62
2019-03-24T08:47:18.716Z,82.28
2019-03-24T08:49:51.689Z,83.47
2019-03-24T08:52:24.332Z,82.36
2019-03-24T08:54:59.632Z,81.94
2019-03-24T08:57:32.474Z,80.89
2019-03-24T09:00:05.599Z,80.39
2019-03-24T09:02:38.334Z,82.13
2019-03-24T09:05:12.259Z,84.48
2019-03-24T09:07:44.926Z,81.22
2019-03-24T09:10:17.892Z,82.11
2019-03-24T09:12:50.503Z,81.10
2019-03-24T09:15:23.272Z,79.51
2019-03-24T09:17:55.888Z,78.78
2019-03-24T09:20:29.566Z,80.68
2019-03-24T09:23:02.109Z,80.95
2019-03-24T09:25:35.003Z,81.68
2019-03-24T09:28:09.265Z,77.12
2019-03-24T09:30:42.358Z,78.23
2019-03-24T09:33:14.984Z,78.43
2019-03-24T09:35:47.675Z,78.88
2019-03-24T09:38:20.280Z,78.24
2019-03-24T09:40:53.174Z,76.97
2019-03-24T09:43:25.711Z,76.29
2019-03-24T09:45:58.231Z,75.57
2019-03-24T09:48:30.924Z,76.00
2019-03-24T09:51:05.159Z,75.52
2019-03-24T09:53:37.705Z,74.69
2019-03-24T09:56:10.232Z,74.94
2019-03-24T09:58:43.319Z,74.68
2019-03-24T10:01:15.847Z,74.55
2019-03-24T10:03:49.050Z,73.48
2019-03-24T10:06:21.692Z,74.24
2019-03-24T10:08:54.487Z,74.21
2019-03-24T10:11:27.413Z,73.62
2019-03-24T10:14:00.101Z,75.44
2019-03-24T10:16:32.739Z,73.06
2019-03-24T10:19:13.593Z,72.48
2019-03-24T10:21:39.815Z,73.96
2019-03-24T10:24:12.433Z,72.03
2019-03-24T10:26:45.051Z,72.19
2019-03-24T10:29:17.574Z,72.47
2019-03-24T10:31:50.138Z,73.91
2019-03-24T10:34:24.101Z,70.86
2019-03-24T10:36:56.744Z,70.88
2019-03-24T10:39:29.280Z,70.57
2019-03-24T10:42:01.964Z,69.39
2019-03-24T10:44:34.807Z,69.02
2019-03-24T10:47:07.345Z,69.26
2019-03-24T10:49:40.064Z,70.05
2019-03-24T10:52:14.089Z,69.40
2019-03-24T10:54:46.778Z,70.22
2019-03-24T10:57:19.291Z,71.85
2019-03-24T10:59:52.161Z,69.56
2019-03-24T11:02:24.938Z,67.29
2019-03-24T11:04:57.541Z,69.99
2019-03-24T11:07:30.073Z,67.90
2019-03-24T11:10:03.064Z,66.35
2019-03-24T11:12:35.688Z,65.95
2019-03-24T11:15:10.606Z,66.78
2019-03-24T11:17:43.238Z,67.19
2019-03-24T11:20:15.968Z,67.63
2019-03-24T11:22:48.658Z,67.83
2019-03-24T11:25:21.294Z,66.03
2019-03-24T11:27:53.916Z,65.29
2019-03-24T11:30:26.639Z,65.01
2019-03-24T11:32:59.260Z,64.73
2019-03-24T11:35:31.974Z,63.72
2019-03-24T11:38:04.594Z,64.43
2019-03-24T11:40:37.235Z,64.07
2019-03-24T11:43:10.018Z,64.43
2019-03-24T11:45:42.667Z,63.00
2019-03-24T11:48:15.396Z,63.07
2019-03-24T11:50:48.100Z,63.60
2019-03-24T11:53:20.970Z,64.06
2019-03-24T11:55:54.108Z,63.47
2019-03-24T11:58:26.885Z,63.89
2019-03-24T12:00:59.600Z,63.89
2019-03-24T12:03:32.344Z,63.90
2019-03-24T12:06:14.117Z,63.62
2019-03-24T12:08:40.263Z,62.70
2019-03-24T12:11:12.812Z,61.82
2019-03-24T12:13:45.876Z,61.75
2019-03-24T12:16:18.522Z,61.23
2019-03-24T12:18:51.270Z,61.10
2019-03-24T12:21:23.814Z,61.19
2019-03-24T12:23:56.539Z,59.70
2019-03-24T12:26:29.245Z,60.11
2019-03-24T12:29:01.780Z,59.77
2019-03-24T12:31:34.709Z,57.86
2019-03-24T12:34:07.404Z,59.29
2019-03-24T12:36:40.041Z,60.00
2019-03-24T12:39:12.743Z,60.45
2019-03-24T12:41:45.477Z,59.29
2019-03-24T12:44:18.087Z,59.80
2019-03-24T12:46:50.804Z,58.17
2019-03-24T12:49:23.522Z,57.29
2019-03-24T12:51:56.080Z,59.48
2019-03-24T12:54:28.779Z,60.56
2019-03-24T12:57:01.596Z,60.86
2019-03-24T12:59:34.202Z,59.85
2019-03-24T13:02:07.008Z,61.88
2019-03-24T13:04:39.650Z,58.14
2019-03-24T13:07:12.290Z,59.26
2019-03-24T13:09:44.922Z,58.42
2019-03-24T13:12:17.644Z,58.97
2019-03-24T13:14:50.274Z,59.08
2019-03-24T13:17:23.044Z,59.43
2019-03-24T13:19:55.680Z,58.77
2019-03-24T13:22:28.333Z,59.20
2019-03-24T13:25:01.176Z,58.76
2019-03-24T13:27:33.886Z,58.61
2019-03-24T13:30:07.467Z,58.81
2019-03-24T13:32:40.364Z,56.66
2019-03-24T13:35:13.979Z,58.73
2019-03-24T13:37:46.614Z,59.37
2019-03-24T13:40:19.268Z,59.48
2019-03-24T13:42:51.931Z,58.50
2019-03-24T13:45:24.954Z,59.33
2019-03-24T13:47:57.683Z,58.63
2019-03-24T13:50:31.647Z,58.38
2019-03-24T13:53:04.600Z,58.13
2019-03-24T13:55:37.348Z,57.43
2019-03-24T13:58:12.076Z,57.18
2019-03-24T14:00:44.379Z,57.12
2019-03-24T14:03:17.024Z,56.55
2019-03-24T14:05:50.658Z,57.77
2019-03-24T14:08:23.545Z,56.53
2019-03-24T14:10:56.189Z,56.86
2019-03-24T14:13:28.768Z,55.10
2019-03-24T14:16:01.670Z,56.07
2019-03-24T14:18:34.322Z,55.63
2019-03-24T14:21:12.864Z,56.47
2019-03-24T14:23:45.444Z,56.48
2019-03-24T14:26:18.163Z,57.24
2019-03-24T14:28:50.741Z,58.62
2019-03-24T14:31:23.478Z,57.98
2019-03-24T14:33:56.041Z,58.24
2019-03-24T14:36:29.049Z,57.96
2019-03-24T14:39:02.174Z,58.04
2019-03-24T14:41:36.152Z,57.41
2019-03-24T14:44:08.879Z,56.34
2019-03-24T14:46:41.510Z,56.11
2019-03-24T14:49:14.079Z,56.02
2019-03-24T14:51:46.715Z,55.86
2019-03-24T14:54:19.368Z,53.98
2019-03-24T14:56:52.028Z,54.61
2019-03-24T14:59:24.619Z,54.26
2019-03-24T15:01:57.646Z,53.56
2019-03-24T15:04:30.275Z,53.84
2019-03-24T15:07:02.987Z,54.09
2019-03-24T15:09:35.739Z,54.28
2019-03-24T15:12:08.436Z,52.81
2019-03-24T15:14:41.368Z,53.96
2019-03-24T15:17:14.012Z,54.09
2019-03-24T15:19:46.923Z,53.54
2019-03-24T15:22:19.579Z,53.88
2019-03-24T15:24:53.289Z,52.55
2019-03-24T15:27:26.238Z,53.18
2019-03-24T15:29:59.256Z,53.60
2019-03-24T15:32:32.186Z,54.52
2019-03-24T15:35:05.231Z,55.07
2019-03-24T15:37:38.598Z,55.32
2019-03-24T15:40:12.980Z,57.53
2019-03-24T15:42:46.869Z,56.80
2019-03-24T15:45:19.708Z,56.68
2019-03-24T15:47:52.699Z,57.52
2019-03-24T15:50:25.726Z,57.47
2019-03-24T15:53:00.144Z,59.71
2019-03-24T15:55:34.237Z,57.49
2019-03-24T15:58:07.338Z,58.24
2019-03-24T16:00:48.896Z,57.70
2019-03-24T16:03:21.847Z,58.86
2019-03-24T16:05:56.456Z,57.63
2019-03-24T16:08:29.599Z,59.06
2019-03-24T16:11:02.442Z,58.99
2019-03-24T16:13:35.323Z,59.52
2019-03-24T16:16:08.233Z,60.21
2019-03-24T16:18:41.322Z,61.75
2019-03-24T16:21:14.187Z,61.52
2019-03-24T16:23:47.053Z,60.84
2019-03-24T16:26:19.954Z,60.03
2019-03-24T16:28:52.911Z,61.57
2019-03-24T16:31:25.895Z,60.59
2019-03-24T16:33:58.794Z,60.79
2019-03-24T16:36:32.729Z,59.93
2019-03-24T16:39:07.396Z,59.24
2019-03-24T16:41:40.329Z,59.79
2019-03-24T16:44:13.564Z,59.71
2019-03-24T16:46:46.689Z,61.32
2019-03-24T16:49:19.478Z,61.01
2019-03-24T16:51:52.330Z,60.58
2019-03-24T16:54:24.943Z,61.65
2019-03-24T16:56:57.706Z,62.55
2019-03-24T16:59:30.261Z,63.18
2019-03-24T17:02:02.801Z,63.41
2019-03-24T17:04:35.364Z,63.85
2019-03-24T17:07:07.988Z,64.02
2019-03-24T17:09:40.579Z,64.18
2019-03-24T17:12:14.356Z,63.97
2019-03-24T17:14:47.151Z,64.05
2019-03-24T17:17:19.762Z,63.14
2019-03-24T17:19:52.384Z,62.83
2019-03-24T17:22:25.068Z,64.01
2019-03-24T17:24:59.434Z,65.46
2019-03-24T17:27:32.027Z,64.60
2019-03-24T17:30:05.868Z,63.83
2019-03-24T17:32:38.632Z,63.99
2019-03-24T17:35:12.621Z,63.40
2019-03-24T17:37:45.234Z,63.21
2019-03-24T17:40:18.819Z,63.86
2019-03-24T17:42:51.572Z,64.34
2019-03-24T17:45:24.192Z,64.45
2019-03-24T17:47:56.802Z,64.44
2019-03-24T17:50:29.415Z,64.76
2019-03-24T17:53:02.018Z,65.39
2019-03-24T17:55:35.023Z,64.53
2019-03-24T17:58:07.674Z,64.86
2019-03-24T18:00:47.525Z,64.73
2019-03-24T18:03:20.505Z,64.86
2019-03-24T18:05:53.071Z,65.50
2019-03-24T18:08:25.701Z,65.43
2019-03-24T18:10:58.444Z,66.71
2019-03-24T18:13:32.050Z,67.28
2019-03-24T18:16:04.779Z,67.73
2019-03-24T18:18:37.409Z,67.40
2019-03-24T18:21:10.046Z,67.39
2019-03-24T18:23:43.669Z,67.00
2019-03-24T18:26:16.395Z,67.41
2019-03-24T18:28:50.187Z,67.81
2019-03-24T18:31:22.829Z,67.82
2019-03-24T18:33:55.505Z,68.05
2019-03-24T18:36:28.279Z,67.79
2019-03-24T18:39:00.915Z,67.37
2019-03-24T18:41:34.236Z,67.03
2019-03-24T18:44:07.123Z,67.43
2019-03-24T18:46:39.846Z,67.22
2019-03-24T18:49:12.696Z,67.53
2019-03-24T18:51:45.506Z,67.37
2019-03-24T18:54:18.512Z,67.01
2019-03-24T18:56:51.234Z,67.87
2019-03-24T18:59:24.326Z,67.59
2019-03-24T19:01:57.406Z,67.30
2019-03-24T19:04:30.199Z,67.90
2019-03-24T19:07:02.888Z,67.09
2019-03-24T19:09:35.877Z,67.72
2019-03-24T19:12:08.508Z,68.21
2019-03-24T19:14:41.305Z,68.55
2019-03-24T19:17:13.947Z,68.76
2019-03-24T19:19:46.824Z,69.09
2019-03-24T19:22:19.475Z,69.42
2019-03-24T19:24:52.227Z,69.45
2019-03-24T19:27:24.964Z,69.23
2019-03-24T19:29:57.726Z,69.19
2019-03-24T19:32:30.703Z,69.18
2019-03-24T19:35:03.615Z,69.56
2019-03-24T19:37:37.546Z,69.89
2019-03-24T19:40:26.250Z,70.46
2019-03-24T19:43:00.329Z,70.87
2019-03-24T19:45:32.994Z,70.39
2019-03-24T19:48:05.868Z,70.47
2019-03-24T19:50:38.416Z,70.34
2019-03-24T19:53:12.260Z,70.30
2019-03-24T19:55:45.046Z,70.08
2019-03-24T19:58:17.731Z,70.64
2019-03-24T20:00:51.301Z,69.27
2019-03-24T20:03:23.907Z,69.39
2019-03-24T20:05:56.441Z,71.89
2019-03-24T20:08:29.039Z,71.70
2019-03-24T20:11:01.570Z,71.82
2019-03-24T20:13:34.087Z,71.72
2019-03-24T20:16:08.302Z,70.83
2019-03-24T20:18:40.889Z,70.89
2019-03-24T20:21:13.730Z,70.19
2019-03-24T20:23:46.244Z,70.98
2019-03-24T20:26:18.776Z,71.15
2019-03-24T20:28:51.458Z,71.60
2019-03-24T20:31:24.019Z,71.94
2019-03-24T20:33:56.545Z,71.61
2019-03-24T20:36:30.119Z,71.88
2019-03-24T20:39:02.714Z,72.26
2019-03-24T20:41:37.519Z,72.35
2019-03-24T20:44:11.405Z,72.28
2019-03-24T20:46:44.301Z,71.44
2019-03-24T20:49:16.814Z,71.33
2019-03-24T20:51:49.423Z,70.97
2019-03-24T20:54:22.015Z,71.28
2019-03-24T20:56:54.544Z,71.68
2019-03-24T20:59:27.065Z,72.24
2019-03-24T21:01:59.596Z,72.25
2019-03-24T21:04:32.366Z,73.29
2019-03-24T21:07:05.044Z,73.35
2019-03-24T21:09:37.658Z,74.14
2019-03-24T21:12:10.181Z,74.92
2019-03-24T21:14:42.798Z,75.52
2019-03-24T21:17:15.443Z,75.92
2019-03-24T21:19:47.951Z,76.44
2019-03-24T21:22:20.640Z,75.35
2019-03-24T21:24:53.162Z,73.19
2019-03-24T21:27:25.704Z,73.09
2019-03-24T21:29:58.227Z,73.31
2019-03-24T21:32:30.845Z,74.30
2019-03-24T21:35:03.433Z,74.75
2019-03-24T21:37:36.689Z,74.99
2019-03-24T21:40:09.691Z,75.42
2019-03-24T21:42:42.215Z,75.79
2019-03-24T21:45:16.396Z,76.57
2019-03-24T21:47:48.939Z,77.10
2019-03-24T21:50:21.544Z,77.32
2019-03-24T21:52:54.149Z,78.65
2019-03-24T21:55:26.680Z,78.36
2019-03-24T21:57:59.218Z,77.52
2019-03-24T22:00:37.254Z,77.70
2019-03-24T22:03:09.870Z,77.45
2019-03-24T22:05:42.456Z,77.37
2019-03-24T22:08:15.088Z,78.28
2019-03-24T22:10:47.667Z,78.42
2019-03-24T22:13:20.268Z,78.45
2019-03-24T22:15:53.161Z,78.87
2019-03-24T22:18:25.696Z,78.37
2019-03-24T22:20:58.294Z,78.09
2019-03-24T22:23:30.815Z,78.56
2019-03-24T22:26:03.403Z,78.97
2019-03-24T22:28:35.941Z,78.28
2019-03-24T22:31:08.800Z,78.20
2019-03-24T22:33:41.301Z,77.76
2019-03-24T22:36:13.832Z,77.94
2019-03-24T22:38:46.459Z,77.63
2019-03-24T22:41:19.053Z,77.26
2019-03-24T22:43:51.587Z,77.79
2019-03-24T22:46:24.487Z,77.18
2019-03-24T22:48:57.027Z,77.23
2019-03-24T22:51:30.700Z,77.43
2019-03-24T22:54:03.698Z,76.43
2019-03-24T22:56:36.671Z,75.75
2019-03-24T22:59:09.282Z,75.10
2019-03-24T23:01:41.970Z,74.90
2019-03-24T23:04:15.103Z,74.99
2019-03-24T23:06:47.766Z,74.00
2019-03-24T23:09:20.312Z,74.56
2019-03-24T23:11:52.912Z,74.25
2019-03-24T23:14:25.446Z,74.12
2019-03-24T23:16:58.053Z,75.03
2019-03-24T23:19:30.661Z,73.93
2019-03-24T23:22:06.020Z,74.23
2019-03-24T23:24:38.548Z,74.25
2019-03-24T23:27:11.965Z,74.03
2019-03-24T23:29:44.576Z,74.33
2019-03-24T23:32:17.162Z,73.66
2019-03-24T23:34:49.684Z,74.05
2019-03-24T23:37:22.210Z,73.65
2019-03-24T23:39:54.831Z,73.34
2019-03-24T23:42:28.581Z,73.12
2019-03-24T23:45:01.101Z,73.82
2019-03-24T23:47:33.715Z,73.32
2019-03-24T23:50:07.094Z,73.54
2019-03-24T23:52:39.631Z,73.24
2019-03-24T23:55:12.563Z,72.80
2019-03-24T23:57:45.234Z,72.33
